sensor_id;sensor_type;location;lat;lon;timestamp;P1;durP1;ratioP1;P2;durP2;ratioP2
57323;SDS011;43160;51.008;18.248;2023-07-31T00:04:11;10.50;;;3.50;;
57323;SDS011;43160;51.008;18.248;2023-07-31T00:13:55;12.10;;;3.20;;
57323;SDS011;43160;51.008;18.248;2023-07-31T00:23:37;8.40;;;2.90;;
57323;SDS011;43160;51.008;18.248;2023-07-31T00:33:20;13.90;;;3.20;;
57323;SDS011;43160;51.008;18.248;2023-07-31T00:43:03;8.80;;;2.80;;
57323;SDS011;43160;51.008;18.248;2023-07-31T00:52:47;9.50;;;3.40;;
57323;SDS011;43160;51.008;18.248;2023-07-31T01:02:30;9.50;;;2.90;;
57323;SDS011;43160;51.008;18.248;2023-07-31T01:10:03;13.50;;;5.40;;
57323;SDS011;43160;51.008;18.248;2023-07-31T01:19:55;9.10;;;3.40;;
57323;SDS011;43160;51.008;18.248;2023-07-31T01:30:15;10.70;;;3.70;;
57323;SDS011;43160;51.008;18.248;2023-07-31T01:40:00;10.40;;;3.50;;
57323;SDS011;43160;51.008;18.248;2023-07-31T01:49:43;8.30;;;2.40;;
57323;SDS011;43160;51.008;18.248;2023-07-31T01:59:27;10.70;;;4.10;;
57323;SDS011;43160;51.008;18.248;2023-07-31T02:09:13;15.40;;;4.00;;
57323;SDS011;43160;51.008;18.248;2023-07-31T02:18:56;10.70;;;3.40;;
57323;SDS011;43160;51.008;18.248;2023-07-31T02:28:39;10.50;;;3.60;;
57323;SDS011;43160;51.008;18.248;2023-07-31T02:38:24;14.50;;;3.80;;
57323;SDS011;43160;51.008;18.248;2023-07-31T02:48:08;8.90;;;3.10;;
57323;SDS011;43160;51.008;18.248;2023-07-31T02:57:50;12.80;;;4.10;;
57323;SDS011;43160;51.008;18.248;2023-07-31T03:07:34;25.30;;;4.20;;
57323;SDS011;43160;51.008;18.248;2023-07-31T03:17:17;22.30;;;4.30;;
57323;SDS011;43160;51.008;18.248;2023-07-31T03:27:00;8.60;;;4.10;;
57323;SDS011;43160;51.008;18.248;2023-07-31T03:36:42;7.40;;;3.10;;
57323;SDS011;43160;51.008;18.248;2023-07-31T03:46:25;10.00;;;4.00;;
57323;SDS011;43160;51.008;18.248;2023-07-31T03:56:09;9.90;;;3.20;;
57323;SDS011;43160;51.008;18.248;2023-07-31T04:05:56;9.60;;;3.40;;
57323;SDS011;43160;51.008;18.248;2023-07-31T04:15:40;31.70;;;4.60;;
57323;SDS011;43160;51.008;18.248;2023-07-31T04:25:22;11.40;;;4.60;;
57323;SDS011;43160;51.008;18.248;2023-07-31T04:35:06;10.10;;;3.70;;
57323;SDS011;43160;51.008;18.248;2023-07-31T04:44:49;12.40;;;3.90;;
57323;SDS011;43160;51.008;18.248;2023-07-31T04:54:32;12.10;;;5.20;;
57323;SDS011;43160;51.008;18.248;2023-07-31T05:04:16;10.70;;;3.90;;
57323;SDS011;43160;51.008;18.248;2023-07-31T05:14:00;9.10;;;3.10;;
57323;SDS011;43160;51.008;18.248;2023-07-31T05:23:43;7.90;;;2.90;;
57323;SDS011;43160;51.008;18.248;2023-07-31T05:33:27;17.00;;;4.40;;
57323;SDS011;43160;51.008;18.248;2023-07-31T05:43:09;8.50;;;2.10;;
57323;SDS011;43160;51.008;18.248;2023-07-31T05:52:53;7.50;;;2.70;;
57323;SDS011;43160;51.008;18.248;2023-07-31T06:02:37;18.20;;;3.10;;
57323;SDS011;43160;51.008;18.248;2023-07-31T06:12:31;12.60;;;3.00;;
57323;SDS011;43160;51.008;18.248;2023-07-31T06:22:15;4.50;;;1.70;;
57323;SDS011;43160;51.008;18.248;2023-07-31T06:29:33;12.20;;;3.30;;
57323;SDS011;43160;51.008;18.248;2023-07-31T06:39:16;17.20;;;3.00;;
57323;SDS011;43160;51.008;18.248;2023-07-31T06:48:59;7.90;;;2.40;;
57323;SDS011;43160;51.008;18.248;2023-07-31T06:58:42;8.90;;;2.20;;
57323;SDS011;43160;51.008;18.248;2023-07-31T07:08:26;9.50;;;1.30;;
57323;SDS011;43160;51.008;18.248;2023-07-31T07:18:19;9.10;;;3.20;;
57323;SDS011;43160;51.008;18.248;2023-07-31T07:28:07;7.20;;;2.30;;
57323;SDS011;43160;51.008;18.248;2023-07-31T07:37:52;10.50;;;2.40;;
57323;SDS011;43160;51.008;18.248;2023-07-31T07:54:55;5.80;;;2.00;;
57323;SDS011;43160;51.008;18.248;2023-07-31T08:04:38;8.00;;;2.10;;
57323;SDS011;43160;51.008;18.248;2023-07-31T08:14:23;17.50;;;2.60;;
57323;SDS011;43160;51.008;18.248;2023-07-31T08:24:06;5.20;;;1.80;;
57323;SDS011;43160;51.008;18.248;2023-07-31T08:33:52;5.90;;;1.90;;
57323;SDS011;43160;51.008;18.248;2023-07-31T08:43:38;9.60;;;2.00;;
57323;SDS011;43160;51.008;18.248;2023-07-31T08:50:56;10.70;;;2.50;;
57323;SDS011;43160;51.008;18.248;2023-07-31T09:00:40;6.10;;;2.00;;
57323;SDS011;43160;51.008;18.248;2023-07-31T09:10:31;8.00;;;2.20;;
57323;SDS011;43160;51.008;18.248;2023-07-31T09:20:19;7.30;;;2.20;;
57323;SDS011;43160;51.008;18.248;2023-07-31T09:30:26;5.40;;;1.20;;
57323;SDS011;43160;51.008;18.248;2023-07-31T09:40:24;5.90;;;1.80;;
57323;SDS011;43160;51.008;18.248;2023-07-31T09:50:15;6.90;;;1.90;;
57323;SDS011;43160;51.008;18.248;2023-07-31T09:59:59;9.10;;;2.30;;
57323;SDS011;43160;51.008;18.248;2023-07-31T10:09:44;11.00;;;2.40;;
57323;SDS011;43160;51.008;18.248;2023-07-31T10:19:30;12.00;;;1.70;;
57323;SDS011;43160;51.008;18.248;2023-07-31T10:29:15;8.20;;;2.00;;
57323;SDS011;43160;51.008;18.248;2023-07-31T10:39:00;3.60;;;1.10;;
57323;SDS011;43160;51.008;18.248;2023-07-31T10:48:58;5.30;;;1.30;;
57323;SDS011;43160;51.008;18.248;2023-07-31T10:59:05;7.30;;;2.20;;
57323;SDS011;43160;51.008;18.248;2023-07-31T11:09:07;4.50;;;1.80;;
57323;SDS011;43160;51.008;18.248;2023-07-31T11:18:55;8.60;;;2.10;;
57323;SDS011;43160;51.008;18.248;2023-07-31T11:28:41;6.80;;;1.80;;
57323;SDS011;43160;51.008;18.248;2023-07-31T11:38:29;6.20;;;1.80;;
57323;SDS011;43160;51.008;18.248;2023-07-31T11:55:40;5.00;;;1.80;;
57323;SDS011;43160;51.008;18.248;2023-07-31T12:05:24;3.80;;;1.60;;
57323;SDS011;43160;51.008;18.248;2023-07-31T12:15:34;1.10;;;1.10;;
57323;SDS011;43160;51.008;18.248;2023-07-31T12:25:28;5.50;;;1.70;;
57323;SDS011;43160;51.008;18.248;2023-07-31T12:35:42;8.00;;;1.90;;
57323;SDS011;43160;51.008;18.248;2023-07-31T12:45:29;2.20;;;1.40;;
57323;SDS011;43160;51.008;18.248;2023-07-31T12:55:15;6.50;;;2.00;;
57323;SDS011;43160;51.008;18.248;2023-07-31T13:04:59;8.60;;;2.20;;
57323;SDS011;43160;51.008;18.248;2023-07-31T13:14:44;6.40;;;1.70;;
57323;SDS011;43160;51.008;18.248;2023-07-31T13:24:26;9.00;;;2.30;;
57323;SDS011;43160;51.008;18.248;2023-07-31T13:34:09;8.10;;;1.70;;
57323;SDS011;43160;51.008;18.248;2023-07-31T13:43:54;4.50;;;1.60;;
57323;SDS011;43160;51.008;18.248;2023-07-31T13:53:38;4.90;;;1.60;;
57323;SDS011;43160;51.008;18.248;2023-07-31T14:03:24;4.30;;;1.50;;
57323;SDS011;43160;51.008;18.248;2023-07-31T14:13:08;7.80;;;2.20;;
57323;SDS011;43160;51.008;18.248;2023-07-31T14:22:53;7.50;;;2.00;;
57323;SDS011;43160;51.008;18.248;2023-07-31T14:32:37;9.30;;;3.10;;
57323;SDS011;43160;51.008;18.248;2023-07-31T14:49:49;6.80;;;2.70;;
57323;SDS011;43160;51.008;18.248;2023-07-31T14:59:33;6.80;;;2.20;;
57323;SDS011;43160;51.008;18.248;2023-07-31T15:09:17;8.20;;;2.30;;
57323;SDS011;43160;51.008;18.248;2023-07-31T15:19:01;4.60;;;1.80;;
57323;SDS011;43160;51.008;18.248;2023-07-31T15:28:49;9.20;;;3.00;;
57323;SDS011;43160;51.008;18.248;2023-07-31T15:38:35;11.70;;;3.10;;
57323;SDS011;43160;51.008;18.248;2023-07-31T15:48:18;9.30;;;2.60;;
57323;SDS011;43160;51.008;18.248;2023-07-31T15:58:02;8.40;;;2.80;;
57323;SDS011;43160;51.008;18.248;2023-07-31T16:07:45;9.00;;;2.70;;
57323;SDS011;43160;51.008;18.248;2023-07-31T16:17:28;9.20;;;3.30;;
57323;SDS011;43160;51.008;18.248;2023-07-31T16:27:12;10.40;;;2.70;;
57323;SDS011;43160;51.008;18.248;2023-07-31T16:36:57;19.10;;;2.70;;
57323;SDS011;43160;51.008;18.248;2023-07-31T16:46:41;8.70;;;2.70;;
57323;SDS011;43160;51.008;18.248;2023-07-31T16:56:24;7.60;;;3.00;;
57323;SDS011;43160;51.008;18.248;2023-07-31T17:06:07;7.50;;;3.40;;
57323;SDS011;43160;51.008;18.248;2023-07-31T17:15:50;7.60;;;1.30;;
57323;SDS011;43160;51.008;18.248;2023-07-31T17:25:37;10.20;;;2.80;;
57323;SDS011;43160;51.008;18.248;2023-07-31T17:35:21;7.80;;;2.10;;
57323;SDS011;43160;51.008;18.248;2023-07-31T17:45:04;8.30;;;2.50;;
57323;SDS011;43160;51.008;18.248;2023-07-31T17:54:48;8.60;;;2.50;;
57323;SDS011;43160;51.008;18.248;2023-07-31T18:04:36;7.90;;;2.60;;
57323;SDS011;43160;51.008;18.248;2023-07-31T18:14:20;8.20;;;2.30;;
57323;SDS011;43160;51.008;18.248;2023-07-31T18:24:07;8.60;;;1.60;;
57323;SDS011;43160;51.008;18.248;2023-07-31T18:33:54;11.30;;;2.40;;
57323;SDS011;43160;51.008;18.248;2023-07-31T18:43:38;11.10;;;2.20;;
57323;SDS011;43160;51.008;18.248;2023-07-31T18:53:22;7.60;;;2.30;;
57323;SDS011;43160;51.008;18.248;2023-07-31T19:03:06;8.60;;;2.00;;
57323;SDS011;43160;51.008;18.248;2023-07-31T19:12:55;9.60;;;2.70;;
57323;SDS011;43160;51.008;18.248;2023-07-31T19:22:39;7.00;;;2.60;;
57323;SDS011;43160;51.008;18.248;2023-07-31T19:32:24;9.90;;;3.00;;
57323;SDS011;43160;51.008;18.248;2023-07-31T19:42:07;9.00;;;2.80;;
57323;SDS011;43160;51.008;18.248;2023-07-31T19:51:53;8.70;;;2.70;;
57323;SDS011;43160;51.008;18.248;2023-07-31T20:01:36;9.50;;;3.00;;
57323;SDS011;43160;51.008;18.248;2023-07-31T20:11:21;12.20;;;2.70;;
57323;SDS011;43160;51.008;18.248;2023-07-31T20:21:09;12.10;;;2.70;;
57323;SDS011;43160;51.008;18.248;2023-07-31T20:30:57;9.60;;;3.10;;
57323;SDS011;43160;51.008;18.248;2023-07-31T20:40:41;9.20;;;2.40;;
57323;SDS011;43160;51.008;18.248;2023-07-31T20:50:29;11.60;;;3.50;;
57323;SDS011;43160;51.008;18.248;2023-07-31T21:00:16;8.40;;;2.50;;
57323;SDS011;43160;51.008;18.248;2023-07-31T21:09:59;9.20;;;3.10;;
57323;SDS011;43160;51.008;18.248;2023-07-31T21:19:43;9.30;;;3.10;;
57323;SDS011;43160;51.008;18.248;2023-07-31T21:29:28;7.70;;;2.30;;
57323;SDS011;43160;51.008;18.248;2023-07-31T21:39:11;9.30;;;2.70;;
57323;SDS011;43160;51.008;18.248;2023-07-31T21:48:54;10.50;;;3.60;;
57323;SDS011;43160;51.008;18.248;2023-07-31T21:58:37;7.00;;;2.90;;
57323;SDS011;43160;51.008;18.248;2023-07-31T22:08:21;12.10;;;3.20;;
57323;SDS011;43160;51.008;18.248;2023-07-31T22:18:03;6.20;;;1.90;;
57323;SDS011;43160;51.008;18.248;2023-07-31T22:27:46;7.80;;;2.20;;
57323;SDS011;43160;51.008;18.248;2023-07-31T22:37:29;7.10;;;2.80;;
57323;SDS011;43160;51.008;18.248;2023-07-31T22:47:12;3.80;;;1.50;;
57323;SDS011;43160;51.008;18.248;2023-07-31T22:56:55;9.40;;;3.00;;
57323;SDS011;43160;51.008;18.248;2023-07-31T23:06:38;10.70;;;3.60;;
57323;SDS011;43160;51.008;18.248;2023-07-31T23:16:22;9.90;;;3.50;;
57323;SDS011;43160;51.008;18.248;2023-07-31T23:26:05;11.60;;;3.30;;
57323;SDS011;43160;51.008;18.248;2023-07-31T23:35:55;15.90;;;3.00;;
57323;SDS011;43160;51.008;18.248;2023-07-31T23:45:38;9.90;;;3.00;;
57323;SDS011;43160;51.008;18.248;2023-07-31T23:55:21;11.40;;;3.50;;
